Pagrindinis puslapis
METAR-TAF:

METAR-TAF

Oro uostai :

Chijas, Graikija

platuma: 38-20N, ilguma: 026-08E, Aukštis: 5 m

Dabartinis oras

Ataskaita buvo paskelbta 24 minutes, ne 05:50 UTC
Vėjas 2 kt iš Vakarų
Temperatūra 20°C
Drėgmė 83%
Slėgis 1011 hPa
Matomumas 10 km arba daugiau
Mažai debesys ne aukštis 1800 ft

METAR: LGHI 140550Z 26002KT 9999 FEW018 20/17 Q1011

Laikas: 09:14 (06:14 UTC)

Prognozė

Ataskaita buvo paskelbta 1 valandą ir 14 minutes, ne 05:00 UTC
Prognozė galioja nuo 14 metu 06 UTC su 14 metu 15 UTC
Vėjas 10 kt iš Pietų
Matomumas 10 km arba daugiau
Išsisklaidę debesys ne aukštis 1600 ft

TAF: LGHI 140500Z 1406/1415 19010KT 9999 SCT016

Orai ataskaitas ir orų prognozės (METAR, TAF).

turimą stotys yra geltonos ir raudonos taškus žemėlapyje.

Perkelti pele per norėdami pamatyti stoties vardą.

Tada spustelėkite, norėdami matyti oro stebėjimo ir prognozės.

Norėdami pakeisti žemėlapį: spustelėkite ant žalios mygtukų su juodo kryžiaus žemyn,; žalią mygtuką su brūkšneliu, jei norite nutolinti; arba žalių rodyklių gretimoms žemėlapius.


METAR-TAF: